Time;durP1;ratioP1;P1;durP2;ratioP2;P2;SDS_P1;SDS_P2;PMS_P1;PMS_P2;Temp;Humidity;BMP_temperature;BMP_pressure;BME280_temperature;BME280_humidity;BME280_pressure;Samples;Min_cycle;Max_cycle;Signal;HPM_P1;HPM_P2
2022/05/04 00:02:45;;;;;;;17.17;6.82;;;;;;;11.29;57.61;99370.25;8508131;27;20398;-70
2022/05/04 00:06:46;;;;;;;15.57;7.25;;;;;;;11.23;57.31;99366.06;8518830;27;20047;-71
2022/05/04 00:10:47;;;;;;;18.90;7.90;;;;;;;11.14;57.65;99357.91;8517174;27;20533;-72
2022/05/04 00:14:48;;;;;;;18.88;8.38;;;;;;;11.09;58.00;99360.72;8526820;27;20038;-71
2022/05/04 00:18:49;;;;;;;18.55;7.95;;;;;;;11.01;58.22;99358.72;8510252;27;20428;-70
2022/05/04 00:22:50;;;;;;;21.10;9.07;;;;;;;11.02;58.89;99371.16;8465790;27;20194;-71
2022/05/04 00:26:51;;;;;;;19.15;8.95;;;;;;;10.98;58.47;99364.75;8531275;27;20246;-71
2022/05/04 00:30:52;;;;;;;17.38;8.45;;;;;;;10.99;58.10;99371.78;8484294;27;20063;-71
2022/05/04 00:34:53;;;;;;;18.05;8.05;;;;;;;11.01;58.12;99369.53;8462919;27;20047;-72
2022/05/04 00:38:54;;;;;;;22.73;8.93;;;;;;;11.03;58.24;99372.75;8517204;27;20488;-72
2022/05/04 00:42:55;;;;;;;23.13;9.35;;;;;;;11.02;57.84;99376.56;8475110;27;20065;-71
2022/05/04 00:46:56;;;;;;;24.60;9.80;;;;;;;11.04;57.99;99374.34;8489364;27;20047;-71
2022/05/04 00:50:56;;;;;;;20.90;9.50;;;;;;;11.03;58.45;99372.75;8524554;27;20126;-72
2022/05/04 00:54:58;;;;;;;24.88;10.35;;;;;;;11.02;58.34;99371.16;8502201;27;20048;-70
2022/05/04 00:59:01;;;;;;;22.77;10.38;;;;;;;11.01;58.08;99369.53;8477998;27;20081;-71
2022/05/04 01:03:02;;;;;;;19.88;9.40;;;;;;;11.02;58.35;99376.56;8482214;27;20046;-71
2022/05/04 01:07:03;;;;;;;22.17;10.02;;;;;;;11.00;58.28;99367.94;8503758;27;20129;-72
2022/05/04 01:11:04;;;;;;;21.70;9.88;;;;;;;10.97;58.10;99374.75;8488306;27;20054;-71
2022/05/04 01:15:06;;;;;;;23.15;8.90;;;;;;;10.93;58.74;99370.28;8502439;27;20568;-71
2022/05/04 01:19:08;;;;;;;19.55;8.55;;;;;;;10.85;58.82;99370.97;8471849;27;20412;-71
2022/05/04 01:23:09;;;;;;;19.88;8.68;;;;;;;10.77;59.04;99369.81;8521934;27;20051;-70
2022/05/04 01:27:13;;;;;;;17.90;7.45;;;;;;;10.76;58.75;99379.00;8496004;27;20046;-71
2022/05/04 01:31:14;;;;;;;20.35;8.00;;;;;;;10.76;59.39;99383.63;8494987;27;20489;-71
2022/05/04 01:35:15;;;;;;;17.95;7.90;;;;;;;10.73;59.78;99384.22;8495848;27;20465;-71
2022/05/04 01:39:16;;;;;;;18.15;8.18;;;;;;;10.71;59.74;99381.81;8523789;27;20074;-71
2022/05/04 01:43:17;;;;;;;20.33;8.57;;;;;;;10.65;59.76;99382.22;8514570;27;20052;-70
2022/05/04 01:47:18;;;;;;;22.48;8.32;;;;;;;10.56;60.57;99390.25;8512996;27;20129;-71
2022/05/04 01:51:19;;;;;;;17.45;7.63;;;;;;;10.42;61.06;99390.25;8468752;27;20051;-72
2022/05/04 01:55:20;;;;;;;17.25;7.90;;;;;;;10.32;62.06;99395.84;8471871;27;20177;-71
2022/05/04 01:59:21;;;;;;;19.73;8.70;;;;;;;10.24;62.70;99393.84;8531740;27;20527;-71
2022/05/04 02:03:22;;;;;;;24.05;8.20;;;;;;;10.23;62.62;99392.25;8535637;27;20050;-71
2022/05/04 02:07:23;;;;;;;20.42;8.30;;;;;;;10.21;62.90;99394.44;8539943;27;20053;-71
2022/05/04 02:11:24;;;;;;;22.92;8.18;;;;;;;10.29;63.40;99391.06;8533765;27;20104;-70
2022/05/04 02:15:25;;;;;;;18.58;8.75;;;;;;;10.30;62.91;99387.25;8515078;27;20069;-71
2022/05/04 02:19:26;;;;;;;24.23;8.13;;;;;;;10.32;62.94;99385.03;8523609;27;20043;-71
2022/05/04 02:23:27;;;;;;;18.95;8.25;;;;;;;10.27;63.58;99398.63;8518775;27;20051;-71
2022/05/04 02:27:28;;;;;;;19.42;8.40;;;;;;;10.26;63.85;99397.03;8521305;27;20134;-71
2022/05/04 02:31:29;;;;;;;17.35;7.35;;;;;;;10.26;63.74;99396.25;8520471;27;20151;-71
2022/05/04 02:39:49;;;;;;;19.52;9.90;;;;;;;10.14;64.46;99394.00;8505424;27;20051;-72
2022/05/04 02:43:50;;;;;;;17.02;7.82;;;;;;;9.98;65.16;99400.78;8528393;27;20419;-71
2022/05/04 02:47:51;;;;;;;18.70;8.18;;;;;;;9.92;65.12;99396.56;8476215;27;20050;-71
2022/05/04 02:51:52;;;;;;;19.20;8.93;;;;;;;9.85;65.42;99406.94;8537473;27;20178;-71
2022/05/04 02:55:53;;;;;;;18.50;8.98;;;;;;;9.82;65.62;99402.16;8486726;27;20522;-70
2022/05/04 02:59:54;;;;;;;18.27;8.43;;;;;;;9.74;65.91;99412.50;8528346;27;20493;-71
2022/05/04 03:03:55;;;;;;;17.70;8.43;;;;;;;9.56;66.60;99410.66;8509750;27;20405;-71
2022/05/04 03:07:56;;;;;;;25.70;10.10;;;;;;;9.44;66.88;99407.63;8513745;27;20051;-71
2022/05/04 03:11:57;;;;;;;22.67;9.02;;;;;;;9.34;67.25;99407.78;8517558;27;20043;-71
2022/05/04 03:15:58;;;;;;;19.20;9.00;;;;;;;9.26;67.41;99411.13;8475832;27;20305;-71
2022/05/04 03:20:00;;;;;;;19.05;8.70;;;;;;;9.16;67.70;99416.66;8490876;27;20509;-71
2022/05/04 03:24:01;;;;;;;17.20;8.80;;;;;;;9.16;68.10;99411.28;8518921;27;20051;-71
2022/05/04 03:28:02;;;;;;;20.88;8.82;;;;;;;9.20;68.41;99407.69;8510801;27;20046;-72
2022/05/04 03:32:03;;;;;;;22.98;10.85;;;;;;;9.25;67.79;99409.53;8504791;27;20437;-71
2022/05/04 03:36:04;;;;;;;27.95;11.48;;;;;;;9.39;66.92;99410.41;8473996;27;20043;-71
2022/05/04 03:40:07;;;;;;;26.70;11.50;;;;;;;9.44;66.24;99407.63;8515661;27;20136;-71
2022/05/04 03:44:08;;;;;;;29.38;11.40;;;;;;;9.44;66.07;99423.00;8497950;27;20477;-71
2022/05/04 03:48:09;;;;;;;23.10;10.77;;;;;;;9.39;66.21;99431.16;8517837;27;20111;-72
2022/05/04 03:52:10;;;;;;;25.95;11.57;;;;;;;9.28;66.57;99435.91;8503832;27;20042;-71
2022/05/04 03:56:11;;;;;;;22.48;10.45;;;;;;;9.17;66.80;99435.25;8505017;27;20062;-71
2022/05/04 04:00:13;;;;;;;25.35;11.20;;;;;;;9.10;67.10;99434.00;8521514;27;20249;-71
2022/05/04 04:04:13;;;;;;;25.42;11.32;;;;;;;9.04;67.61;99429.78;8527068;27;20053;-70
2022/05/04 04:08:14;;;;;;;29.77;11.48;;;;;;;9.02;67.54;99421.19;8501007;27;20439;-70
2022/05/04 04:12:15;;;;;;;24.48;11.73;;;;;;;8.99;67.73;99427.16;8505249;27;20531;-70
2022/05/04 04:16:16;;;;;;;30.00;12.68;;;;;;;9.05;68.12;99431.38;8497110;27;20035;-71
2022/05/04 04:24:37;;;;;;;25.30;11.70;;;;;;;9.37;67.62;99439.53;8502976;27;20046;-71
2022/05/04 04:28:38;;;;;;;23.83;12.20;;;;;;;9.59;67.55;99447.81;8499505;27;20055;-71
2022/05/04 04:32:39;;;;;;;24.02;11.10;;;;;;;9.75;67.11;99443.78;8499154;27;20064;-71
2022/05/04 04:36:42;;;;;;;28.17;12.07;;;;;;;9.82;67.10;99461.50;8500109;27;20262;-71
2022/05/04 04:40:43;;;;;;;34.35;12.02;;;;;;;9.82;67.41;99453.41;8484939;27;20111;-72
2022/05/04 04:44:44;;;;;;;28.05;11.38;;;;;;;9.80;67.28;99453.69;8498277;27;20147;-71
2022/05/04 04:48:45;;;;;;;29.63;12.13;;;;;;;9.77;67.30;99448.09;8524091;27;20048;-71
2022/05/04 04:52:46;;;;;;;29.67;11.90;;;;;;;9.83;67.30;99452.31;8484252;27;20543;-71
2022/05/04 04:56:47;;;;;;;25.50;11.70;;;;;;;9.92;66.91;99445.13;8497959;27;20035;-71
2022/05/04 05:00:48;;;;;;;25.90;11.30;;;;;;;9.99;67.25;99438.25;8506296;27;20100;-71
2022/05/04 05:04:49;;;;;;;30.27;12.45;;;;;;;10.08;67.20;99449.16;8501442;27;20039;-71
2022/05/04 05:08:50;;;;;;;29.95;12.00;;;;;;;10.30;66.91;99446.66;8528834;27;20034;-71
2022/05/04 05:12:51;;;;;;;27.50;11.45;;;;;;;10.48;65.99;99443.03;8524465;27;20089;-70
2022/05/04 05:16:52;;;;;;;23.02;11.00;;;;;;;10.63;65.68;99443.88;8456241;27;20050;-71
2022/05/04 05:20:53;;;;;;;23.05;11.05;;;;;;;10.70;66.62;99449.66;8510512;27;20098;-71
2022/05/04 05:24:55;;;;;;;20.55;10.57;;;;;;;10.77;66.31;99444.66;8526326;27;20095;-71
2022/05/04 05:28:56;;;;;;;24.95;10.07;;;;;;;10.83;66.24;99443.44;8525551;27;20053;-71
2022/05/04 05:32:57;;;;;;;16.60;8.95;;;;;;;10.88;65.89;99451.44;8493317;27;20054;-71
2022/05/04 05:36:59;;;;;;;19.17;9.25;;;;;;;11.02;65.19;99452.22;8488484;27;20125;-71
2022/05/04 05:41:01;;;;;;;19.27;9.45;;;;;;;11.29;64.17;99457.56;8512142;27;20051;-71
2022/05/04 05:45:02;;;;;;;27.70;9.68;;;;;;;11.63;63.54;99467.09;8482248;27;20047;-71
2022/05/04 05:49:03;;;;;;;22.73;9.40;;;;;;;12.03;62.60;99470.72;8526160;27;20295;-71
2022/05/04 05:53:04;;;;;;;21.02;8.90;;;;;;;12.34;62.01;99471.53;8465492;27;20050;-71
2022/05/04 05:57:05;;;;;;;19.42;8.80;;;;;;;12.60;61.04;99479.78;8521433;27;20039;-71
2022/05/04 06:01:06;;;;;;;21.58;8.80;;;;;;;12.80;60.65;99479.22;8529099;27;20057;-71
2022/05/04 06:05:07;;;;;;;19.42;8.00;;;;;;;13.01;59.94;99474.81;8528801;27;20054;-71
2022/05/04 06:09:09;;;;;;;15.25;8.52;;;;;;;13.17;59.63;99477.09;8528798;27;20408;-71
2022/05/04 06:13:09;;;;;;;23.73;8.45;;;;;;;13.25;59.39;99479.06;8528738;27;20053;-71
2022/05/04 06:17:11;;;;;;;22.50;8.07;;;;;;;13.31;58.85;99483.22;8528576;27;20412;-72
2022/05/04 06:21:12;;;;;;;14.95;7.75;;;;;;;13.40;58.77;99475.88;8528674;27;20042;-72
2022/05/04 06:25:13;;;;;;;14.68;8.07;;;;;;;13.48;58.56;99485.94;8528742;27;20042;-71
2022/05/04 06:29:14;;;;;;;16.33;8.07;;;;;;;13.57;58.40;99481.31;8528543;27;20074;-71
2022/05/04 06:37:34;;;;;;;15.98;7.85;;;;;;;13.85;57.92;99482.56;8482657;27;20428;-71
2022/05/04 06:41:36;;;;;;;14.30;7.47;;;;;;;13.94;57.41;99472.50;8527902;27;20061;-71
2022/05/04 06:45:37;;;;;;;14.95;7.72;;;;;;;13.98;56.93;99480.00;8530527;27;20039;-70
2022/05/04 06:49:39;;;;;;;18.33;7.53;;;;;;;14.00;57.14;99488.63;8534023;27;20424;-71
2022/05/04 06:53:40;;;;;;;15.57;7.95;;;;;;;13.96;57.11;99491.97;8520216;27;20128;-71
2022/05/04 06:57:41;;;;;;;13.75;8.00;;;;;;;14.04;57.32;99489.56;8497737;27;20047;-71
2022/05/04 07:01:42;;;;;;;18.17;8.57;;;;;;;14.23;56.94;99487.28;8534107;27;20066;-71
2022/05/04 07:05:43;;;;;;;16.45;8.60;;;;;;;14.34;56.38;99493.97;8531791;27;20087;-71
2022/05/04 07:09:44;;;;;;;17.10;9.40;;;;;;;14.34;57.15;99483.13;8533914;27;20163;-72
2022/05/04 07:13:45;;;;;;;24.77;9.77;;;;;;;14.41;56.97;99488.88;8534015;27;20625;-71
2022/05/04 07:17:46;;;;;;;23.02;8.45;;;;;;;14.44;56.46;99493.66;8533650;27;20142;-71
2022/05/04 07:21:48;;;;;;;17.70;8.80;;;;;;;14.43;56.15;99489.38;8471736;27;20302;-71
2022/05/04 07:25:49;;;;;;;19.08;8.20;;;;;;;14.53;56.26;99491.75;8516657;27;20054;-70
2022/05/04 07:29:50;;;;;;;20.15;8.75;;;;;;;14.73;55.94;99496.44;8533724;27;20134;-72
2022/05/04 07:33:51;;;;;;;18.40;8.02;;;;;;;14.83;55.60;99489.84;8533749;27;20131;-71
2022/05/04 07:37:52;;;;;;;21.05;8.07;;;;;;;15.04;55.56;99495.34;8532986;27;20553;-71
2022/05/04 07:46:14;;;;;;;14.90;7.18;;;;;;;15.34;54.69;99493.38;8518165;27;20047;-70
2022/05/04 07:50:14;;;;;;;20.88;8.23;;;;;;;15.40;54.34;99498.31;8532920;27;20461;-71
2022/05/04 07:54:15;;;;;;;16.45;7.68;;;;;;;15.48;53.75;99497.47;8505500;27;20047;-71
2022/05/04 07:58:16;;;;;;;12.40;6.93;;;;;;;15.65;52.63;99503.94;8497240;27;20058;-72
2022/05/04 08:06:36;;;;;;;12.38;6.38;;;;;;;15.96;51.15;99509.75;8523745;27;20049;-71
2022/05/04 08:10:38;;;;;;;15.52;7.75;;;;;;;16.10;50.55;99510.25;8532155;27;20054;-71
2022/05/04 08:14:42;;;;;;;14.32;7.05;;;;;;;16.23;50.00;99503.69;8531819;27;20526;-71
2022/05/04 08:18:43;;;;;;;16.92;6.82;;;;;;;16.41;50.33;99507.06;8520353;27;20057;-71
2022/05/04 08:22:43;;;;;;;15.27;7.07;;;;;;;16.60;48.57;99501.88;8520286;27;20122;-71
2022/05/04 08:26:45;;;;;;;11.20;6.40;;;;;;;16.78;47.79;99513.41;8523561;27;20051;-72
2022/05/04 08:30:45;;;;;;;13.23;6.97;;;;;;;16.96;46.94;99509.31;8477655;27;20130;-72
2022/05/04 08:34:46;;;;;;;12.27;6.95;;;;;;;17.16;47.49;99508.41;8494371;27;20127;-72
2022/05/04 08:38:47;;;;;;;15.00;6.82;;;;;;;17.27;45.75;99515.00;8503968;27;20149;-72
2022/05/04 08:42:49;;;;;;;12.20;6.63;;;;;;;17.48;47.25;99509.38;8496765;27;20086;-72
2022/05/04 08:46:50;;;;;;;12.23;5.80;;;;;;;17.85;44.52;99507.38;8485433;27;20559;-71
2022/05/04 08:50:52;;;;;;;13.88;6.22;;;;;;;18.09;44.72;99507.28;8527771;27;20385;-72
2022/05/04 08:54:53;;;;;;;11.00;5.88;;;;;;;18.39;43.34;99504.97;8496390;27;20047;-71
2022/05/04 08:58:54;;;;;;;12.48;5.72;;;;;;;18.41;42.49;99512.81;8476417;27;20051;-71
2022/05/04 09:02:55;;;;;;;10.60;5.38;;;;;;;18.12;43.21;99517.53;8476269;27;20047;-71
2022/05/04 09:06:59;;;;;;;11.10;4.72;;;;;;;17.84;43.34;99516.72;8494436;27;20047;-71
2022/05/04 09:11:00;;;;;;;11.85;5.53;;;;;;;17.69;43.60;99509.25;8473346;27;20046;-71
2022/05/04 09:15:02;;;;;;;8.15;5.47;;;;;;;17.59;44.01;99526.91;8508774;27;20421;-72
2022/05/04 09:19:12;;;;;;;9.00;4.97;;;;;;;17.55;43.53;99514.28;8499257;27;20142;-72
2022/05/04 09:23:29;;;;;;;13.05;5.00;;;;;;;17.59;43.84;99520.63;8494229;27;20043;-71
2022/05/04 09:27:30;;;;;;;7.90;5.22;;;;;;;17.75;44.17;99513.34;8503469;27;20578;-72
2022/05/04 09:31:32;;;;;;;10.55;5.70;;;;;;;18.33;42.10;99511.03;8479701;27;20045;-71
2022/05/04 09:35:34;;;;;;;33.25;5.60;;;;;;;18.47;41.61;99505.94;8509241;27;20070;-72
2022/05/04 09:48:29;;;;;;;9.20;5.00;;;;;;;18.26;41.79;99510.84;8509463;27;20058;-72
2022/05/04 09:52:45;;;;;;;9.60;4.90;;;;;;;18.30;41.75;99511.72;8525105;27;20043;-71
2022/05/04 09:56:51;;;;;;;13.70;5.05;;;;;;;18.20;41.32;99506.75;8484792;27;20043;-72
2022/05/04 10:00:53;;;;;;;11.82;5.05;;;;;;;18.27;40.94;99506.97;8523226;27;20095;-71
2022/05/04 10:04:55;;;;;;;9.52;5.05;;;;;;;18.28;41.25;99503.09;8517076;27;20047;-71
2022/05/04 10:08:55;;;;;;;8.85;5.47;;;;;;;18.45;39.36;99505.50;8516878;27;20047;-72
2022/05/04 10:12:58;;;;;;;16.05;5.53;;;;;;;18.55;39.24;99507.75;8513962;27;20407;-71
2022/05/04 10:17:34;;;;;;;8.48;5.00;;;;;;;18.58;39.39;99500.78;8505414;27;20510;-72
2022/05/04 10:21:36;;;;;;;8.38;4.65;;;;;;;18.65;39.54;99501.75;8342016;28;20049;-72
2022/05/04 10:25:37;;;;;;;9.85;5.20;;;;;;;18.68;38.81;99501.03;8343602;28;20037;-71
2022/05/04 10:34:03;;;;;;;13.05;5.20;;;;;;;18.64;40.01;99499.38;8359864;28;20052;-71
2022/05/04 10:38:10;;;;;;;11.35;5.10;;;;;;;18.73;39.80;99500.78;8359396;28;20122;-72
2022/05/04 10:42:54;;;;;;;13.73;4.80;;;;;;;18.75;39.87;99493.03;8359414;28;20141;-71
2022/05/04 10:46:55;;;;;;;11.82;5.25;;;;;;;18.58;39.65;99490.63;8293104;28;20133;-72
2022/05/04 10:51:04;;;;;;;14.35;5.80;;;;;;;18.59;40.74;99486.75;8293567;28;20046;-72
2022/05/04 10:55:05;;;;;;;10.60;5.40;;;;;;;18.63;41.06;99486.84;8350226;28;20053;-71
2022/05/04 10:59:06;;;;;;;11.15;5.00;;;;;;;18.84;41.05;99482.69;8358527;28;20157;-72
2022/05/04 11:03:07;;;;;;;13.65;5.10;;;;;;;18.96;40.82;99490.81;8326713;28;20435;-72
2022/05/04 11:07:08;;;;;;;12.50;5.07;;;;;;;18.96;41.44;99479.84;8309158;28;20054;-72
2022/05/04 11:11:09;;;;;;;9.27;5.20;;;;;;;19.01;41.69;99477.97;8324139;28;20053;-72
2022/05/04 11:15:11;;;;;;;7.93;5.00;;;;;;;18.76;41.78;99480.94;8309169;28;20507;-72
2022/05/04 11:19:14;;;;;;;10.55;5.18;;;;;;;18.75;42.74;99473.88;8326958;28;20053;-72
2022/05/04 11:23:23;;;;;;;11.32;5.25;;;;;;;19.09;41.82;99482.50;8446121;28;20044;-72
2022/05/04 11:27:25;;;;;;;9.63;4.70;;;;;;;19.55;40.73;99478.84;8458010;28;20060;-72
2022/05/04 11:31:25;;;;;;;9.82;4.80;;;;;;;19.99;40.18;99470.31;8439850;28;20055;-73
2022/05/04 11:35:28;;;;;;;10.07;4.68;;;;;;;19.97;39.71;99467.19;8427451;28;20531;-72
2022/05/04 11:39:29;;;;;;;8.38;4.60;;;;;;;20.17;39.09;99471.47;8455134;27;20095;-72
2022/05/04 11:43:34;;;;;;;8.38;4.53;;;;;;;20.75;39.66;99479.56;8500001;27;20055;-72
2022/05/04 11:47:35;;;;;;;18.98;5.68;;;;;;;21.09;37.83;99467.56;8530365;27;20062;-72
2022/05/04 14:38:15;;;;;;;12.30;3.40;;;;;;;22.37;33.72;99381.13;8474651;27;20066;-72
2022/05/04 14:42:16;;;;;;;11.50;3.70;;;;;;;22.08;33.82;99375.41;8492904;27;20428;-73
2022/05/04 14:46:17;;;;;;;6.82;3.42;;;;;;;21.79;33.93;99378.97;8493478;27;20047;-72
2022/05/04 14:50:18;;;;;;;5.78;3.80;;;;;;;21.40;34.45;99368.34;8493396;27;20046;-73
2022/05/04 14:54:19;;;;;;;6.07;3.45;;;;;;;21.05;34.88;99384.31;8457415;28;20488;-72
2022/05/04 14:58:21;;;;;;;5.63;3.20;;;;;;;20.96;35.45;99381.06;8520230;27;20046;-72
2022/05/04 15:02:22;;;;;;;5.80;3.22;;;;;;;20.84;35.83;99373.03;8527805;27;20176;-72
2022/05/04 15:06:23;;;;;;;8.40;3.38;;;;;;;20.67;36.48;99373.59;8529482;27;20061;-73
2022/05/04 15:10:24;;;;;;;8.55;3.95;;;;;;;20.43;36.74;99370.09;8514555;27;20046;-72
2022/05/04 15:14:25;;;;;;;8.30;3.72;;;;;;;20.38;37.01;99364.91;8533406;27;20118;-72
2022/05/04 15:18:26;;;;;;;7.20;3.55;;;;;;;20.76;36.97;99363.13;8533535;27;20111;-72
2022/05/04 15:22:27;;;;;;;9.25;3.70;;;;;;;21.33;35.93;99362.75;8533438;27;20408;-73
2022/05/04 15:26:28;;;;;;;6.45;3.42;;;;;;;21.66;34.43;99358.44;8533315;27;20047;-72
2022/05/04 15:30:29;;;;;;;4.28;3.22;;;;;;;21.26;33.67;99357.19;8533103;27;20095;-72
2022/05/04 15:34:30;;;;;;;6.13;3.53;;;;;;;21.32;33.89;99354.91;8509926;27;20047;-72
2022/05/04 15:38:31;;;;;;;6.75;3.40;;;;;;;22.76;33.11;99365.75;8498472;27;20047;-73
2022/05/04 15:42:31;;;;;;;12.43;3.42;;;;;;;23.32;31.37;99358.97;8498103;27;20058;-73
2022/05/04 15:46:33;;;;;;;5.53;3.25;;;;;;;23.27;30.02;99362.06;8500109;27;20040;-72
2022/05/04 15:50:33;;;;;;;7.47;3.42;;;;;;;22.33;32.18;99365.41;8459222;27;20039;-73
2022/05/04 15:54:35;;;;;;;6.82;3.55;;;;;;;21.65;33.43;99354.09;8499001;27;20424;-73
2022/05/04 15:58:35;;;;;;;7.47;3.25;;;;;;;22.15;33.26;99358.19;8523281;27;20126;-73
2022/05/04 16:06:56;;;;;;;5.85;3.22;;;;;;;23.26;31.29;99355.00;8532362;27;20484;-73
2022/05/04 16:10:57;;;;;;;7.65;2.83;;;;;;;23.61;29.74;99349.63;8495181;27;20050;-73
2022/05/04 16:14:58;;;;;;;6.32;2.50;;;;;;;23.40;30.31;99344.03;8528724;27;20049;-73
2022/05/04 16:23:19;;;;;;;3.95;2.13;;;;;;;23.94;28.69;99354.84;8501967;27;20086;-72
2022/05/04 16:27:20;;;;;;;6.93;2.40;;;;;;;23.17;29.42;99353.38;8508180;27;20046;-73
2022/05/04 16:31:21;;;;;;;10.05;2.90;;;;;;;22.25;30.37;99355.50;8482108;27;20095;-72
2022/05/04 16:35:23;;;;;;;4.88;2.22;;;;;;;21.57;31.72;99355.19;8513684;27;20050;-73
2022/05/04 16:39:24;;;;;;;5.30;3.00;;;;;;;21.07;32.01;99349.06;8518484;27;20053;-73
2022/05/04 16:43:25;;;;;;;3.85;2.60;;;;;;;20.76;33.51;99343.94;8515437;27;20082;-73
2022/05/04 16:47:26;;;;;;;7.47;2.80;;;;;;;20.32;33.56;99341.69;8413835;27;20043;-73
2022/05/04 16:51:28;;;;;;;5.38;2.92;;;;;;;20.11;34.05;99346.78;8509782;27;20050;-73
2022/05/04 16:55:28;;;;;;;4.93;2.90;;;;;;;19.89;34.65;99344.84;8514861;27;20741;-74
2022/05/04 16:59:30;;;;;;;6.55;3.13;;;;;;;19.70;34.95;99348.44;8514037;27;20038;-72
2022/05/04 17:03:30;;;;;;;6.82;3.47;;;;;;;19.56;35.31;99348.97;8526981;27;20169;-73
2022/05/04 17:07:31;;;;;;;4.00;2.83;;;;;;;19.37;36.18;99351.66;8489887;27;20082;-73
2022/05/04 17:11:32;;;;;;;6.25;2.50;;;;;;;19.17;37.06;99347.34;8459307;27;20517;-73
2022/05/04 17:15:34;;;;;;;4.68;2.75;;;;;;;18.89;37.67;99353.00;8495246;27;20484;-73
2022/05/04 17:19:34;;;;;;;5.75;2.80;;;;;;;18.62;38.27;99349.25;8459870;27;20047;-72
2022/05/04 17:23:35;;;;;;;6.35;3.20;;;;;;;18.44;38.86;99342.56;8495253;27;20080;-73
2022/05/04 17:27:37;;;;;;;8.15;3.03;;;;;;;18.21;39.74;99349.81;8500736;27;20039;-73
2022/05/04 17:31:39;;;;;;;9.80;3.58;;;;;;;18.01;39.89;99352.47;8520507;27;20046;-73
2022/05/04 17:39:59;;;;;;;5.13;3.63;;;;;;;17.43;41.78;99358.66;8517510;27;20059;-72
2022/05/04 17:44:00;;;;;;;6.70;3.50;;;;;;;17.25;42.46;99358.94;8508782;27;20074;-73
2022/05/04 17:48:02;;;;;;;5.65;3.40;;;;;;;17.10;43.21;99367.06;8523347;27;20079;-73
2022/05/04 17:52:03;;;;;;;11.50;4.03;;;;;;;17.01;43.95;99369.16;8517853;27;20050;-72
2022/05/04 17:56:04;;;;;;;13.70;4.30;;;;;;;16.91;44.43;99375.88;8512733;27;20123;-73
2022/05/04 18:00:06;;;;;;;14.57;6.65;;;;;;;16.69;45.47;99379.09;8495346;27;20073;-72
2022/05/04 18:04:08;;;;;;;24.63;9.98;;;;;;;16.54;46.33;99377.03;8469622;28;20046;-72
2022/05/04 18:08:11;;;;;;;25.70;10.40;;;;;;;16.30;46.89;99383.25;8494236;28;20051;-73
2022/05/04 18:12:12;;;;;;;16.23;7.60;;;;;;;16.06;47.69;99389.47;8441308;27;20047;-72
2022/05/04 18:16:13;;;;;;;12.75;6.07;;;;;;;15.84;48.47;99382.50;8506639;27;20545;-72
2022/05/04 18:20:15;;;;;;;12.40;7.05;;;;;;;15.58;49.29;99396.38;8486761;27;20055;-72
2022/05/04 18:24:16;;;;;;;15.60;5.60;;;;;;;15.34;50.17;99390.78;8516269;27;20092;-73
2022/05/04 18:28:17;;;;;;;22.67;8.00;;;;;;;15.11;50.78;99393.06;8523353;27;20180;-75
2022/05/04 18:32:19;;;;;;;30.70;10.80;;;;;;;14.87;51.68;99397.53;8521887;27;20134;-72
2022/05/04 18:36:32;;;;;;;46.80;15.23;;;;;;;14.62;52.70;99397.38;8473151;28;20386;-72
2022/05/04 18:40:33;;;;;;;31.23;12.07;;;;;;;14.41;53.40;99401.94;8527377;27;20083;-72
2022/05/04 18:44:34;;;;;;;24.85;11.32;;;;;;;14.25;53.87;99406.28;8534099;27;20073;-72
2022/05/04 18:48:35;;;;;;;19.80;9.10;;;;;;;14.10;54.40;99406.81;8534513;27;20047;-72
2022/05/04 18:52:36;;;;;;;16.00;8.13;;;;;;;13.92;55.14;99423.16;8534326;27;20412;-72
2022/05/04 18:56:38;;;;;;;19.98;8.77;;;;;;;13.79;55.46;99418.72;8534209;27;20095;-72
2022/05/04 19:00:39;;;;;;;19.65;9.57;;;;;;;13.63;55.94;99414.91;8534314;27;20053;-72
2022/05/04 19:04:40;;;;;;;32.05;12.70;;;;;;;13.47;56.53;99424.66;8497163;27;20393;-72
2022/05/04 19:08:41;;;;;;;57.92;18.33;;;;;;;13.40;56.69;99427.03;8516594;27;20134;-72
2022/05/04 19:12:45;;;;;;;36.67;12.65;;;;;;;13.37;57.42;99423.06;8509458;27;20043;-72
2022/05/04 19:16:48;;;;;;;21.45;9.48;;;;;;;13.34;58.00;99422.88;8476205;27;20439;-72
2022/05/04 19:20:49;;;;;;;26.95;9.00;;;;;;;13.27;58.29;99422.59;8499199;27;20050;-72
2022/05/04 19:24:51;;;;;;;23.10;9.77;;;;;;;13.21;58.40;99427.38;8449623;27;20043;-72
2022/05/04 19:28:52;;;;;;;26.17;9.00;;;;;;;13.15;58.81;99425.13;8511286;27;20507;-72
2022/05/04 19:32:54;;;;;;;21.02;8.88;;;;;;;13.05;59.23;99432.41;8458149;27;20155;-72
2022/05/04 19:36:56;;;;;;;32.33;11.25;;;;;;;12.95;59.49;99427.31;8472022;27;20085;-72
2022/05/04 19:40:58;;;;;;;40.50;9.75;;;;;;;12.88;59.85;99432.38;8473884;27;20485;-72
2022/05/04 19:45:00;;;;;;;37.92;11.27;;;;;;;12.82;60.26;99428.22;8477170;27;20050;-72
2022/05/04 19:49:01;;;;;;;27.90;10.25;;;;;;;12.71;60.45;99437.75;8529795;27;20472;-72
2022/05/04 19:53:02;;;;;;;24.40;9.30;;;;;;;12.64;60.42;99431.97;8527572;27;20092;-72
2022/05/04 19:57:07;;;;;;;20.73;8.95;;;;;;;12.63;60.41;99438.53;8519901;27;20070;-72
2022/05/04 20:01:09;;;;;;;18.23;9.27;;;;;;;12.63;60.91;99435.81;8519682;27;20067;-72
2022/05/04 20:05:10;;;;;;;25.10;9.23;;;;;;;12.61;61.05;99443.47;8502555;27;20039;-72
2022/05/04 20:09:11;;;;;;;21.77;8.95;;;;;;;12.62;61.38;99445.06;8464877;27;20062;-72
2022/05/04 20:13:13;;;;;;;24.10;9.15;;;;;;;12.61;61.30;99443.47;8447092;27;20043;-72
2022/05/04 20:17:14;;;;;;;22.17;8.30;;;;;;;12.59;61.21;99440.25;8497860;27;20047;-72
2022/05/04 20:21:15;;;;;;;25.38;10.13;;;;;;;12.55;61.40;99440.09;8530202;27;20042;-72
2022/05/04 20:25:16;;;;;;;50.67;14.82;;;;;;;12.50;61.10;99436.72;8531200;27;20097;-72
2022/05/04 20:29:17;;;;;;;44.55;12.07;;;;;;;12.51;61.22;99443.75;8514521;27;20046;-71
2022/05/04 20:33:18;;;;;;;37.08;11.27;;;;;;;12.51;61.78;99438.31;8481023;27;20051;-72
2022/05/04 20:41:41;;;;;;;22.27;8.52;;;;;;;12.42;61.85;99451.03;8486451;27;20083;-72
2022/05/04 20:45:42;;;;;;;25.55;8.27;;;;;;;12.33;61.86;99442.84;8489776;27;20047;-72
2022/05/04 20:49:43;;;;;;;21.80;7.70;;;;;;;12.29;61.81;99447.31;8497524;27;20039;-71
2022/05/04 20:53:44;;;;;;;14.55;7.55;;;;;;;12.16;61.98;99443.56;8504756;27;20084;-72
2022/05/04 20:57:44;;;;;;;12.13;5.85;;;;;;;11.99;62.22;99448.91;8496081;27;20084;-72
2022/05/04 21:01:45;;;;;;;21.42;6.60;;;;;;;11.79;62.61;99450.19;8497031;27;20046;-71
2022/05/04 21:05:46;;;;;;;12.45;6.45;;;;;;;11.65;62.90;99449.44;8495731;27;20047;-72
2022/05/04 21:09:47;;;;;;;13.38;6.40;;;;;;;11.54;63.44;99447.28;8459828;27;20051;-72
2022/05/04 21:13:48;;;;;;;14.43;6.78;;;;;;;11.40;63.66;99448.13;8506771;27;20054;-71
2022/05/04 21:17:49;;;;;;;13.70;6.65;;;;;;;11.29;64.03;99452.16;8525240;27;20572;-71
2022/05/04 21:21:50;;;;;;;16.25;7.07;;;;;;;11.20;64.29;99459.41;8476060;27;20285;-72
2022/05/04 21:25:51;;;;;;;15.68;7.22;;;;;;;11.08;64.76;99453.72;8431826;27;20050;-71
2022/05/04 21:29:52;;;;;;;18.67;8.27;;;;;;;11.00;64.66;99449.00;8475958;27;20381;-71
2022/05/04 21:33:54;;;;;;;20.33;7.43;;;;;;;10.92;64.70;99449.72;8408005;28;20796;-72
2022/05/04 21:37:54;;;;;;;16.13;7.50;;;;;;;10.83;65.17;99435.34;8422147;28;20619;-72
2022/05/04 21:41:56;;;;;;;16.13;7.50;;;;;;;10.76;65.29;99448.44;8364363;28;20059;-72
2022/05/04 21:45:56;;;;;;;15.88;7.97;;;;;;;10.68;65.73;99441.06;8422578;28;20143;-72
2022/05/04 21:49:58;;;;;;;19.33;7.55;;;;;;;10.61;65.80;99440.66;8422728;28;20052;-72
2022/05/04 21:53:59;;;;;;;19.67;7.93;;;;;;;10.57;66.04;99443.94;8422387;28;20043;-72
2022/05/04 21:58:01;;;;;;;16.20;7.63;;;;;;;10.56;65.95;99434.25;8422853;28;20414;-72
2022/05/04 22:02:02;;;;;;;19.17;7.25;;;;;;;10.52;65.90;99448.66;8422445;28;20070;-72
2022/05/04 22:06:04;;;;;;;13.80;7.72;;;;;;;10.55;65.87;99432.66;8467754;28;20485;-72
2022/05/04 22:10:05;;;;;;;14.77;8.40;;;;;;;10.50;65.90;99446.25;8461745;28;20051;-72
2022/05/04 22:14:06;;;;;;;15.13;8.07;;;;;;;10.52;66.06;99435.94;8448004;28;20069;-71
2022/05/04 22:18:10;;;;;;;20.77;8.45;;;;;;;10.55;65.54;99432.66;8477418;27;20092;-71
2022/05/04 22:22:11;;;;;;;20.27;8.65;;;;;;;10.57;65.72;99441.25;8465594;27;20101;-72
2022/05/04 22:26:13;;;;;;;17.83;9.23;;;;;;;10.62;65.30;99439.56;8467655;28;20048;-71